sensor_id;sensor_type;location;lat;lon;timestamp;P1;durP1;ratioP1;P2;durP2;ratioP2
76903;SDS011;65865;51.698;-0.292;2023-06-10T00:01:06;6.90;;;2.92;;
76903;SDS011;65865;51.698;-0.292;2023-06-10T00:03:32;7.78;;;3.45;;
76903;SDS011;65865;51.698;-0.292;2023-06-10T00:05:58;9.30;;;3.70;;
76903;SDS011;65865;51.698;-0.292;2023-06-10T00:08:24;7.38;;;3.35;;
76903;SDS011;65865;51.698;-0.292;2023-06-10T00:10:50;7.72;;;3.00;;
76903;SDS011;65865;51.698;-0.292;2023-06-10T00:13:16;8.35;;;3.20;;
76903;SDS011;65865;51.698;-0.292;2023-06-10T00:15:42;6.97;;;3.20;;
76903;SDS011;65865;51.698;-0.292;2023-06-10T00:18:08;7.20;;;2.80;;
76903;SDS011;65865;51.698;-0.292;2023-06-10T00:20:35;8.15;;;3.00;;
76903;SDS011;65865;51.698;-0.292;2023-06-10T00:23:02;6.22;;;3.10;;
76903;SDS011;65865;51.698;-0.292;2023-06-10T00:25:31;6.68;;;3.10;;
76903;SDS011;65865;51.698;-0.292;2023-06-10T00:27:58;7.80;;;3.33;;
76903;SDS011;65865;51.698;-0.292;2023-06-10T00:30:24;10.05;;;3.55;;
76903;SDS011;65865;51.698;-0.292;2023-06-10T00:32:50;9.27;;;3.50;;
76903;SDS011;65865;51.698;-0.292;2023-06-10T00:35:16;8.88;;;3.17;;
76903;SDS011;65865;51.698;-0.292;2023-06-10T00:37:42;7.85;;;2.83;;
76903;SDS011;65865;51.698;-0.292;2023-06-10T00:40:08;8.70;;;3.17;;
76903;SDS011;65865;51.698;-0.292;2023-06-10T00:42:34;5.93;;;2.75;;
76903;SDS011;65865;51.698;-0.292;2023-06-10T00:45:00;9.48;;;3.55;;
76903;SDS011;65865;51.698;-0.292;2023-06-10T00:47:27;10.38;;;3.67;;
76903;SDS011;65865;51.698;-0.292;2023-06-10T00:49:53;7.40;;;2.85;;
76903;SDS011;65865;51.698;-0.292;2023-06-10T00:52:19;10.18;;;3.20;;
76903;SDS011;65865;51.698;-0.292;2023-06-10T00:54:47;9.93;;;3.28;;
76903;SDS011;65865;51.698;-0.292;2023-06-10T00:57:13;8.88;;;3.10;;
76903;SDS011;65865;51.698;-0.292;2023-06-10T00:59:39;8.18;;;3.22;;
76903;SDS011;65865;51.698;-0.292;2023-06-10T01:02:06;8.73;;;3.30;;
76903;SDS011;65865;51.698;-0.292;2023-06-10T01:04:32;6.20;;;3.28;;
76903;SDS011;65865;51.698;-0.292;2023-06-10T01:09:42;7.75;;;3.10;;
76903;SDS011;65865;51.698;-0.292;2023-06-10T01:12:26;7.18;;;3.47;;
76903;SDS011;65865;51.698;-0.292;2023-06-10T01:14:54;8.82;;;3.67;;
76903;SDS011;65865;51.698;-0.292;2023-06-10T01:17:21;7.88;;;3.70;;
76903;SDS011;65865;51.698;-0.292;2023-06-10T01:19:56;6.65;;;3.35;;
76903;SDS011;65865;51.698;-0.292;2023-06-10T01:22:26;6.82;;;2.92;;
76903;SDS011;65865;51.698;-0.292;2023-06-10T01:24:54;8.82;;;3.17;;
76903;SDS011;65865;51.698;-0.292;2023-06-10T01:27:23;9.05;;;3.55;;
76903;SDS011;65865;51.698;-0.292;2023-06-10T01:29:58;6.50;;;2.92;;
76903;SDS011;65865;51.698;-0.292;2023-06-10T01:32:36;7.97;;;3.47;;
76903;SDS011;65865;51.698;-0.292;2023-06-10T01:35:03;9.77;;;3.53;;
76903;SDS011;65865;51.698;-0.292;2023-06-10T01:39:58;7.70;;;3.45;;
76903;SDS011;65865;51.698;-0.292;2023-06-10T01:42:24;8.00;;;3.53;;
76903;SDS011;65865;51.698;-0.292;2023-06-10T01:44:51;8.63;;;3.15;;
76903;SDS011;65865;51.698;-0.292;2023-06-10T01:47:17;10.88;;;3.17;;
76903;SDS011;65865;51.698;-0.292;2023-06-10T01:49:43;9.38;;;3.60;;
76903;SDS011;65865;51.698;-0.292;2023-06-10T01:52:09;7.47;;;3.22;;
76903;SDS011;65865;51.698;-0.292;2023-06-10T01:54:35;5.72;;;2.83;;
76903;SDS011;65865;51.698;-0.292;2023-06-10T01:57:01;8.73;;;3.10;;
76903;SDS011;65865;51.698;-0.292;2023-06-10T01:59:27;7.53;;;3.20;;
76903;SDS011;65865;51.698;-0.292;2023-06-10T02:01:53;7.55;;;3.60;;
76903;SDS011;65865;51.698;-0.292;2023-06-10T02:04:19;6.65;;;3.08;;
76903;SDS011;65865;51.698;-0.292;2023-06-10T02:06:45;9.13;;;3.60;;
76903;SDS011;65865;51.698;-0.292;2023-06-10T02:09:11;7.53;;;3.47;;
76903;SDS011;65865;51.698;-0.292;2023-06-10T02:11:37;8.95;;;3.83;;
76903;SDS011;65865;51.698;-0.292;2023-06-10T02:14:03;8.45;;;3.42;;
76903;SDS011;65865;51.698;-0.292;2023-06-10T02:16:30;7.18;;;3.03;;
76903;SDS011;65865;51.698;-0.292;2023-06-10T02:18:56;9.48;;;3.15;;
76903;SDS011;65865;51.698;-0.292;2023-06-10T02:21:22;5.90;;;3.25;;
76903;SDS011;65865;51.698;-0.292;2023-06-10T02:23:48;8.95;;;3.22;;
76903;SDS011;65865;51.698;-0.292;2023-06-10T02:26:14;7.60;;;3.22;;
76903;SDS011;65865;51.698;-0.292;2023-06-10T02:28:43;7.15;;;3.03;;
76903;SDS011;65865;51.698;-0.292;2023-06-10T02:31:09;7.78;;;3.08;;
76903;SDS011;65865;51.698;-0.292;2023-06-10T02:33:36;9.75;;;3.10;;
76903;SDS011;65865;51.698;-0.292;2023-06-10T02:36:05;7.95;;;3.03;;
76903;SDS011;65865;51.698;-0.292;2023-06-10T02:38:31;6.82;;;3.15;;
76903;SDS011;65865;51.698;-0.292;2023-06-10T02:40:57;8.13;;;4.07;;
76903;SDS011;65865;51.698;-0.292;2023-06-10T02:43:23;8.23;;;3.22;;
76903;SDS011;65865;51.698;-0.292;2023-06-10T02:45:49;7.55;;;3.00;;
76903;SDS011;65865;51.698;-0.292;2023-06-10T02:48:15;7.05;;;3.10;;
76903;SDS011;65865;51.698;-0.292;2023-06-10T02:50:41;8.32;;;2.80;;
76903;SDS011;65865;51.698;-0.292;2023-06-10T02:53:07;5.30;;;2.30;;
76903;SDS011;65865;51.698;-0.292;2023-06-10T02:55:33;6.97;;;2.60;;
76903;SDS011;65865;51.698;-0.292;2023-06-10T02:58:00;8.35;;;2.13;;
76903;SDS011;65865;51.698;-0.292;2023-06-10T03:00:27;7.25;;;2.55;;
76903;SDS011;65865;51.698;-0.292;2023-06-10T03:02:53;4.03;;;1.95;;
76903;SDS011;65865;51.698;-0.292;2023-06-10T03:05:22;6.00;;;2.38;;
76903;SDS011;65865;51.698;-0.292;2023-06-10T03:07:48;5.88;;;2.42;;
76903;SDS011;65865;51.698;-0.292;2023-06-10T03:10:14;7.18;;;2.38;;
76903;SDS011;65865;51.698;-0.292;2023-06-10T03:12:40;5.88;;;2.35;;
76903;SDS011;65865;51.698;-0.292;2023-06-10T03:15:06;4.93;;;2.33;;
76903;SDS011;65865;51.698;-0.292;2023-06-10T03:17:32;6.78;;;2.20;;
76903;SDS011;65865;51.698;-0.292;2023-06-10T03:19:58;5.82;;;2.13;;
76903;SDS011;65865;51.698;-0.292;2023-06-10T03:22:25;6.47;;;2.50;;
76903;SDS011;65865;51.698;-0.292;2023-06-10T03:24:51;4.88;;;2.03;;
76903;SDS011;65865;51.698;-0.292;2023-06-10T03:27:18;5.53;;;2.10;;
76903;SDS011;65865;51.698;-0.292;2023-06-10T03:29:44;6.15;;;2.60;;
76903;SDS011;65865;51.698;-0.292;2023-06-10T03:32:10;5.13;;;2.25;;
76903;SDS011;65865;51.698;-0.292;2023-06-10T03:34:36;5.80;;;2.20;;
76903;SDS011;65865;51.698;-0.292;2023-06-10T03:37:03;5.03;;;2.00;;
76903;SDS011;65865;51.698;-0.292;2023-06-10T03:39:29;4.28;;;1.70;;
76903;SDS011;65865;51.698;-0.292;2023-06-10T03:41:56;6.43;;;2.17;;
76903;SDS011;65865;51.698;-0.292;2023-06-10T03:44:22;5.72;;;1.90;;
76903;SDS011;65865;51.698;-0.292;2023-06-10T03:46:48;5.72;;;2.22;;
76903;SDS011;65865;51.698;-0.292;2023-06-10T03:49:14;4.50;;;1.70;;
76903;SDS011;65865;51.698;-0.292;2023-06-10T03:51:40;5.15;;;1.88;;
76903;SDS011;65865;51.698;-0.292;2023-06-10T03:54:06;4.70;;;2.28;;
76903;SDS011;65865;51.698;-0.292;2023-06-10T03:56:32;5.50;;;2.13;;
76903;SDS011;65865;51.698;-0.292;2023-06-10T03:58:58;4.78;;;2.00;;
76903;SDS011;65865;51.698;-0.292;2023-06-10T04:01:25;8.13;;;2.08;;
76903;SDS011;65865;51.698;-0.292;2023-06-10T04:03:51;5.25;;;2.30;;
76903;SDS011;65865;51.698;-0.292;2023-06-10T04:06:19;5.55;;;1.77;;
76903;SDS011;65865;51.698;-0.292;2023-06-10T04:08:47;5.07;;;1.70;;
76903;SDS011;65865;51.698;-0.292;2023-06-10T04:11:13;4.93;;;1.73;;
76903;SDS011;65865;51.698;-0.292;2023-06-10T04:13:39;6.15;;;2.17;;
76903;SDS011;65865;51.698;-0.292;2023-06-10T04:16:05;6.00;;;2.08;;
76903;SDS011;65865;51.698;-0.292;2023-06-10T04:18:31;4.53;;;2.10;;
76903;SDS011;65865;51.698;-0.292;2023-06-10T04:20:57;5.70;;;2.03;;
76903;SDS011;65865;51.698;-0.292;2023-06-10T04:23:23;4.60;;;1.77;;
76903;SDS011;65865;51.698;-0.292;2023-06-10T04:25:49;6.55;;;1.98;;
76903;SDS011;65865;51.698;-0.292;2023-06-10T04:28:15;5.53;;;2.17;;
76903;SDS011;65865;51.698;-0.292;2023-06-10T04:30:41;5.53;;;1.88;;
76903;SDS011;65865;51.698;-0.292;2023-06-10T04:33:07;5.55;;;2.05;;
76903;SDS011;65865;51.698;-0.292;2023-06-10T04:35:34;4.68;;;2.10;;
76903;SDS011;65865;51.698;-0.292;2023-06-10T04:38:00;5.82;;;1.80;;
76903;SDS011;65865;51.698;-0.292;2023-06-10T04:40:28;5.78;;;1.77;;
76903;SDS011;65865;51.698;-0.292;2023-06-10T04:42:54;5.80;;;1.85;;
76903;SDS011;65865;51.698;-0.292;2023-06-10T04:45:20;4.00;;;1.73;;
76903;SDS011;65865;51.698;-0.292;2023-06-10T04:47:46;3.83;;;1.65;;
76903;SDS011;65865;51.698;-0.292;2023-06-10T04:50:12;5.30;;;2.00;;
76903;SDS011;65865;51.698;-0.292;2023-06-10T04:52:38;4.88;;;1.60;;
76903;SDS011;65865;51.698;-0.292;2023-06-10T04:55:06;6.13;;;2.17;;
76903;SDS011;65865;51.698;-0.292;2023-06-10T04:57:32;3.88;;;1.55;;
76903;SDS011;65865;51.698;-0.292;2023-06-10T04:59:58;5.85;;;1.77;;
76903;SDS011;65865;51.698;-0.292;2023-06-10T05:02:24;5.35;;;1.95;;
76903;SDS011;65865;51.698;-0.292;2023-06-10T05:04:50;5.65;;;2.00;;
76903;SDS011;65865;51.698;-0.292;2023-06-10T05:07:18;6.68;;;2.20;;
76903;SDS011;65865;51.698;-0.292;2023-06-10T05:09:44;5.43;;;2.10;;
76903;SDS011;65865;51.698;-0.292;2023-06-10T05:12:10;6.85;;;2.17;;
76903;SDS011;65865;51.698;-0.292;2023-06-10T05:14:36;4.55;;;2.03;;
76903;SDS011;65865;51.698;-0.292;2023-06-10T05:17:02;5.40;;;2.35;;
76903;SDS011;65865;51.698;-0.292;2023-06-10T05:19:30;4.18;;;2.03;;
76903;SDS011;65865;51.698;-0.292;2023-06-10T05:21:56;4.43;;;1.80;;
76903;SDS011;65865;51.698;-0.292;2023-06-10T05:24:22;5.32;;;2.13;;
76903;SDS011;65865;51.698;-0.292;2023-06-10T05:26:48;6.47;;;2.22;;
76903;SDS011;65865;51.698;-0.292;2023-06-10T05:29:15;5.65;;;2.97;;
76903;SDS011;65865;51.698;-0.292;2023-06-10T05:31:41;4.82;;;2.17;;
76903;SDS011;65865;51.698;-0.292;2023-06-10T05:34:07;5.93;;;2.35;;
76903;SDS011;65865;51.698;-0.292;2023-06-10T05:36:33;4.13;;;1.50;;
76903;SDS011;65865;51.698;-0.292;2023-06-10T05:38:59;4.70;;;1.92;;
76903;SDS011;65865;51.698;-0.292;2023-06-10T05:41:25;4.68;;;1.83;;
76903;SDS011;65865;51.698;-0.292;2023-06-10T05:43:51;3.60;;;1.67;;
76903;SDS011;65865;51.698;-0.292;2023-06-10T05:46:17;4.57;;;1.88;;
76903;SDS011;65865;51.698;-0.292;2023-06-10T05:48:43;4.43;;;2.20;;
76903;SDS011;65865;51.698;-0.292;2023-06-10T05:51:09;4.47;;;1.80;;
76903;SDS011;65865;51.698;-0.292;2023-06-10T05:53:36;4.80;;;2.40;;
76903;SDS011;65865;51.698;-0.292;2023-06-10T05:56:02;5.20;;;1.90;;
76903;SDS011;65865;51.698;-0.292;2023-06-10T05:58:28;5.05;;;1.92;;
76903;SDS011;65865;51.698;-0.292;2023-06-10T06:00:54;5.63;;;1.55;;
76903;SDS011;65865;51.698;-0.292;2023-06-10T06:03:20;4.88;;;1.98;;
76903;SDS011;65865;51.698;-0.292;2023-06-10T06:05:46;5.75;;;2.10;;
76903;SDS011;65865;51.698;-0.292;2023-06-10T06:08:12;5.95;;;2.03;;
76903;SDS011;65865;51.698;-0.292;2023-06-10T06:10:44;4.55;;;1.75;;
76903;SDS011;65865;51.698;-0.292;2023-06-10T06:13:10;5.43;;;2.20;;
76903;SDS011;65865;51.698;-0.292;2023-06-10T06:15:36;5.97;;;2.10;;
76903;SDS011;65865;51.698;-0.292;2023-06-10T06:18:02;4.72;;;1.77;;
76903;SDS011;65865;51.698;-0.292;2023-06-10T06:20:28;5.57;;;1.90;;
76903;SDS011;65865;51.698;-0.292;2023-06-10T06:22:54;4.75;;;1.70;;
76903;SDS011;65865;51.698;-0.292;2023-06-10T06:25:20;5.25;;;2.30;;
76903;SDS011;65865;51.698;-0.292;2023-06-10T06:27:46;4.50;;;1.77;;
76903;SDS011;65865;51.698;-0.292;2023-06-10T06:30:12;4.25;;;1.80;;
76903;SDS011;65865;51.698;-0.292;2023-06-10T06:32:38;4.32;;;1.83;;
76903;SDS011;65865;51.698;-0.292;2023-06-10T06:35:04;4.65;;;1.88;;
76903;SDS011;65865;51.698;-0.292;2023-06-10T06:37:33;4.18;;;1.85;;
76903;SDS011;65865;51.698;-0.292;2023-06-10T06:39:59;4.65;;;1.77;;
76903;SDS011;65865;51.698;-0.292;2023-06-10T06:42:25;7.30;;;2.00;;
76903;SDS011;65865;51.698;-0.292;2023-06-10T06:44:51;5.18;;;2.10;;
76903;SDS011;65865;51.698;-0.292;2023-06-10T06:47:17;4.57;;;1.95;;
76903;SDS011;65865;51.698;-0.292;2023-06-10T06:49:45;4.38;;;2.33;;
76903;SDS011;65865;51.698;-0.292;2023-06-10T06:52:11;5.05;;;2.05;;
76903;SDS011;65865;51.698;-0.292;2023-06-10T06:54:37;3.75;;;1.73;;
76903;SDS011;65865;51.698;-0.292;2023-06-10T06:57:03;4.32;;;1.88;;
76903;SDS011;65865;51.698;-0.292;2023-06-10T06:59:30;3.60;;;1.73;;
76903;SDS011;65865;51.698;-0.292;2023-06-10T07:01:57;4.25;;;1.83;;
76903;SDS011;65865;51.698;-0.292;2023-06-10T07:04:23;4.75;;;2.00;;
76903;SDS011;65865;51.698;-0.292;2023-06-10T07:06:49;4.10;;;1.73;;
76903;SDS011;65865;51.698;-0.292;2023-06-10T07:09:15;4.45;;;1.77;;
76903;SDS011;65865;51.698;-0.292;2023-06-10T07:11:41;3.22;;;1.55;;
76903;SDS011;65865;51.698;-0.292;2023-06-10T07:14:07;6.05;;;1.67;;
76903;SDS011;65865;51.698;-0.292;2023-06-10T07:16:33;4.38;;;1.95;;
76903;SDS011;65865;51.698;-0.292;2023-06-10T07:19:00;4.22;;;1.50;;
76903;SDS011;65865;51.698;-0.292;2023-06-10T07:21:26;5.55;;;1.90;;
76903;SDS011;65865;51.698;-0.292;2023-06-10T07:23:53;4.50;;;1.70;;
76903;SDS011;65865;51.698;-0.292;2023-06-10T07:26:21;3.78;;;1.80;;
76903;SDS011;65865;51.698;-0.292;2023-06-10T07:28:47;4.10;;;1.63;;
76903;SDS011;65865;51.698;-0.292;2023-06-10T07:31:13;5.78;;;1.90;;
76903;SDS011;65865;51.698;-0.292;2023-06-10T07:33:39;4.85;;;1.80;;
76903;SDS011;65865;51.698;-0.292;2023-06-10T07:36:06;4.80;;;2.10;;
76903;SDS011;65865;51.698;-0.292;2023-06-10T07:38:32;4.65;;;2.20;;
76903;SDS011;65865;51.698;-0.292;2023-06-10T07:40:59;6.55;;;2.40;;
76903;SDS011;65865;51.698;-0.292;2023-06-10T07:43:25;5.00;;;2.20;;
76903;SDS011;65865;51.698;-0.292;2023-06-10T07:45:51;4.80;;;2.13;;
76903;SDS011;65865;51.698;-0.292;2023-06-10T07:48:17;4.25;;;1.83;;
76903;SDS011;65865;51.698;-0.292;2023-06-10T07:50:43;5.07;;;1.80;;
76903;SDS011;65865;51.698;-0.292;2023-06-10T07:53:09;4.50;;;1.85;;
76903;SDS011;65865;51.698;-0.292;2023-06-10T07:55:35;5.03;;;2.25;;
76903;SDS011;65865;51.698;-0.292;2023-06-10T07:58:02;5.50;;;2.40;;
76903;SDS011;65865;51.698;-0.292;2023-06-10T08:00:28;5.00;;;2.60;;
76903;SDS011;65865;51.698;-0.292;2023-06-10T08:02:54;5.28;;;2.40;;
76903;SDS011;65865;51.698;-0.292;2023-06-10T08:05:20;6.18;;;3.22;;
76903;SDS011;65865;51.698;-0.292;2023-06-10T08:07:47;7.30;;;2.92;;
76903;SDS011;65865;51.698;-0.292;2023-06-10T08:10:13;6.22;;;3.25;;
76903;SDS011;65865;51.698;-0.292;2023-06-10T08:12:39;6.93;;;3.20;;
76903;SDS011;65865;51.698;-0.292;2023-06-10T08:15:05;8.82;;;3.15;;
76903;SDS011;65865;51.698;-0.292;2023-06-10T08:17:31;6.68;;;3.28;;
76903;SDS011;65865;51.698;-0.292;2023-06-10T08:19:57;6.95;;;3.35;;
76903;SDS011;65865;51.698;-0.292;2023-06-10T08:22:23;7.70;;;3.03;;
76903;SDS011;65865;51.698;-0.292;2023-06-10T08:24:49;7.25;;;3.50;;
76903;SDS011;65865;51.698;-0.292;2023-06-10T08:27:16;6.45;;;3.35;;
76903;SDS011;65865;51.698;-0.292;2023-06-10T08:29:42;7.03;;;3.65;;
76903;SDS011;65865;51.698;-0.292;2023-06-10T08:32:08;7.35;;;3.63;;
76903;SDS011;65865;51.698;-0.292;2023-06-10T08:34:34;8.05;;;3.80;;
76903;SDS011;65865;51.698;-0.292;2023-06-10T08:37:01;6.00;;;3.35;;
76903;SDS011;65865;51.698;-0.292;2023-06-10T08:39:27;7.35;;;3.78;;
76903;SDS011;65865;51.698;-0.292;2023-06-10T08:42:08;8.90;;;3.90;;
76903;SDS011;65865;51.698;-0.292;2023-06-10T08:44:35;7.05;;;3.88;;
76903;SDS011;65865;51.698;-0.292;2023-06-10T08:47:09;8.10;;;4.22;;
76903;SDS011;65865;51.698;-0.292;2023-06-10T08:49:41;8.02;;;4.47;;
76903;SDS011;65865;51.698;-0.292;2023-06-10T08:52:07;7.68;;;4.05;;
76903;SDS011;65865;51.698;-0.292;2023-06-10T08:54:34;8.35;;;4.00;;
76903;SDS011;65865;51.698;-0.292;2023-06-10T08:57:04;7.25;;;4.10;;
76903;SDS011;65865;51.698;-0.292;2023-06-10T08:59:31;9.60;;;4.65;;
76903;SDS011;65865;51.698;-0.292;2023-06-10T09:01:57;6.75;;;4.25;;
76903;SDS011;65865;51.698;-0.292;2023-06-10T09:04:24;7.85;;;4.82;;
76903;SDS011;65865;51.698;-0.292;2023-06-10T09:06:50;9.20;;;5.93;;
76903;SDS011;65865;51.698;-0.292;2023-06-10T09:09:16;8.85;;;4.40;;
76903;SDS011;65865;51.698;-0.292;2023-06-10T09:11:45;8.05;;;4.20;;
76903;SDS011;65865;51.698;-0.292;2023-06-10T09:14:11;7.05;;;4.85;;
76903;SDS011;65865;51.698;-0.292;2023-06-10T09:16:38;8.82;;;5.40;;
76903;SDS011;65865;51.698;-0.292;2023-06-10T09:19:04;7.28;;;4.22;;
76903;SDS011;65865;51.698;-0.292;2023-06-10T09:21:33;8.32;;;4.90;;
76903;SDS011;65865;51.698;-0.292;2023-06-10T09:23:59;7.35;;;4.50;;
76903;SDS011;65865;51.698;-0.292;2023-06-10T09:26:28;6.53;;;4.30;;
76903;SDS011;65865;51.698;-0.292;2023-06-10T09:29:13;7.00;;;4.00;;
76903;SDS011;65865;51.698;-0.292;2023-06-10T09:31:39;7.05;;;4.97;;
76903;SDS011;65865;51.698;-0.292;2023-06-10T09:34:09;7.07;;;4.72;;
76903;SDS011;65865;51.698;-0.292;2023-06-10T09:36:35;7.60;;;4.30;;
76903;SDS011;65865;51.698;-0.292;2023-06-10T09:39:02;6.88;;;3.65;;
76903;SDS011;65865;51.698;-0.292;2023-06-10T09:41:34;6.70;;;4.25;;
76903;SDS011;65865;51.698;-0.292;2023-06-10T09:44:01;6.53;;;4.18;;
76903;SDS011;65865;51.698;-0.292;2023-06-10T09:46:30;9.27;;;4.93;;
76903;SDS011;65865;51.698;-0.292;2023-06-10T09:48:59;7.43;;;4.28;;
76903;SDS011;65865;51.698;-0.292;2023-06-10T09:51:25;7.82;;;5.05;;
76903;SDS011;65865;51.698;-0.292;2023-06-10T09:53:52;7.85;;;4.50;;
76903;SDS011;65865;51.698;-0.292;2023-06-10T09:56:18;7.53;;;4.40;;
76903;SDS011;65865;51.698;-0.292;2023-06-10T09:58:44;8.73;;;3.92;;
76903;SDS011;65865;51.698;-0.292;2023-06-10T10:01:12;6.15;;;4.20;;
76903;SDS011;65865;51.698;-0.292;2023-06-10T10:03:45;7.63;;;4.53;;
76903;SDS011;65865;51.698;-0.292;2023-06-10T10:06:12;7.85;;;3.80;;
76903;SDS011;65865;51.698;-0.292;2023-06-10T10:08:38;6.18;;;3.80;;
76903;SDS011;65865;51.698;-0.292;2023-06-10T10:11:04;5.57;;;4.30;;
76903;SDS011;65865;51.698;-0.292;2023-06-10T10:13:31;6.47;;;3.80;;
76903;SDS011;65865;51.698;-0.292;2023-06-10T10:15:59;4.82;;;3.60;;
76903;SDS011;65865;51.698;-0.292;2023-06-10T10:20:55;5.90;;;4.10;;
76903;SDS011;65865;51.698;-0.292;2023-06-10T10:23:24;7.82;;;3.85;;
76903;SDS011;65865;51.698;-0.292;2023-06-10T10:25:53;5.53;;;3.60;;
76903;SDS011;65865;51.698;-0.292;2023-06-10T10:28:19;6.75;;;3.72;;
76903;SDS011;65865;51.698;-0.292;2023-06-10T10:30:49;5.45;;;4.30;;
76903;SDS011;65865;51.698;-0.292;2023-06-10T10:33:16;5.63;;;4.28;;
76903;SDS011;65865;51.698;-0.292;2023-06-10T10:35:45;5.65;;;3.92;;
76903;SDS011;65865;51.698;-0.292;2023-06-10T10:38:11;6.38;;;4.05;;
76903;SDS011;65865;51.698;-0.292;2023-06-10T10:40:38;4.72;;;3.63;;
76903;SDS011;65865;51.698;-0.292;2023-06-10T10:43:04;4.80;;;3.75;;
76903;SDS011;65865;51.698;-0.292;2023-06-10T10:45:31;6.13;;;3.50;;
76903;SDS011;65865;51.698;-0.292;2023-06-10T10:47:59;6.63;;;3.90;;
76903;SDS011;65865;51.698;-0.292;2023-06-10T10:50:30;6.22;;;4.05;;
76903;SDS011;65865;51.698;-0.292;2023-06-10T10:52:59;6.70;;;3.88;;
76903;SDS011;65865;51.698;-0.292;2023-06-10T10:55:26;5.82;;;3.65;;
76903;SDS011;65865;51.698;-0.292;2023-06-10T11:00:28;7.47;;;3.85;;
76903;SDS011;65865;51.698;-0.292;2023-06-10T11:02:57;5.63;;;3.80;;
76903;SDS011;65865;51.698;-0.292;2023-06-10T11:05:37;6.10;;;3.70;;
76903;SDS011;65865;51.698;-0.292;2023-06-10T11:08:03;5.57;;;3.50;;
76903;SDS011;65865;51.698;-0.292;2023-06-10T11:10:31;4.70;;;3.50;;
76903;SDS011;65865;51.698;-0.292;2023-06-10T11:12:58;5.40;;;3.80;;
76903;SDS011;65865;51.698;-0.292;2023-06-10T11:15:24;7.47;;;4.15;;
76903;SDS011;65865;51.698;-0.292;2023-06-10T11:18:06;8.23;;;3.90;;
76903;SDS011;65865;51.698;-0.292;2023-06-10T11:23:23;6.47;;;3.63;;
76903;SDS011;65865;51.698;-0.292;2023-06-10T11:25:50;7.55;;;4.38;;
76903;SDS011;65865;51.698;-0.292;2023-06-10T11:28:19;7.20;;;3.75;;
76903;SDS011;65865;51.698;-0.292;2023-06-10T11:30:45;5.72;;;3.20;;
76903;SDS011;65865;51.698;-0.292;2023-06-10T11:33:16;5.00;;;3.22;;
76903;SDS011;65865;51.698;-0.292;2023-06-10T11:35:42;7.35;;;3.63;;
76903;SDS011;65865;51.698;-0.292;2023-06-10T11:38:09;5.18;;;3.33;;
76903;SDS011;65865;51.698;-0.292;2023-06-10T11:40:36;6.68;;;4.15;;
76903;SDS011;65865;51.698;-0.292;2023-06-10T11:45:28;6.60;;;3.67;;
76903;SDS011;65865;51.698;-0.292;2023-06-10T11:48:03;5.20;;;3.55;;
76903;SDS011;65865;51.698;-0.292;2023-06-10T11:50:33;5.43;;;3.85;;
76903;SDS011;65865;51.698;-0.292;2023-06-10T11:52:59;6.75;;;3.72;;
76903;SDS011;65865;51.698;-0.292;2023-06-10T11:55:25;6.00;;;2.97;;
76903;SDS011;65865;51.698;-0.292;2023-06-10T11:57:51;5.57;;;4.03;;
76903;SDS011;65865;51.698;-0.292;2023-06-10T12:00:22;6.03;;;3.90;;
76903;SDS011;65865;51.698;-0.292;2023-06-10T12:02:58;5.40;;;3.95;;
76903;SDS011;65865;51.698;-0.292;2023-06-10T12:05:24;6.20;;;4.30;;
76903;SDS011;65865;51.698;-0.292;2023-06-10T12:08:07;5.25;;;3.90;;
76903;SDS011;65865;51.698;-0.292;2023-06-10T12:10:33;5.70;;;4.22;;
76903;SDS011;65865;51.698;-0.292;2023-06-10T12:13:04;6.32;;;4.05;;
76903;SDS011;65865;51.698;-0.292;2023-06-10T12:15:30;5.53;;;4.30;;
76903;SDS011;65865;51.698;-0.292;2023-06-10T12:17:57;6.85;;;3.67;;
76903;SDS011;65865;51.698;-0.292;2023-06-10T12:20:27;7.75;;;4.10;;
76903;SDS011;65865;51.698;-0.292;2023-06-10T12:22:53;5.18;;;3.60;;
76903;SDS011;65865;51.698;-0.292;2023-06-10T12:25:24;6.68;;;4.15;;
76903;SDS011;65865;51.698;-0.292;2023-06-10T12:27:51;5.72;;;3.53;;
76903;SDS011;65865;51.698;-0.292;2023-06-10T12:30:21;5.78;;;3.65;;
76903;SDS011;65865;51.698;-0.292;2023-06-10T12:32:47;6.63;;;4.63;;
76903;SDS011;65865;51.698;-0.292;2023-06-10T12:35:15;5.28;;;3.47;;
76903;SDS011;65865;51.698;-0.292;2023-06-10T12:37:42;6.03;;;4.47;;
76903;SDS011;65865;51.698;-0.292;2023-06-10T12:40:09;6.28;;;3.63;;
76903;SDS011;65865;51.698;-0.292;2023-06-10T12:42:36;5.88;;;3.97;;
76903;SDS011;65865;51.698;-0.292;2023-06-10T12:45:02;8.07;;;3.83;;
76903;SDS011;65865;51.698;-0.292;2023-06-10T12:47:29;5.55;;;3.90;;
76903;SDS011;65865;51.698;-0.292;2023-06-10T12:49:57;6.68;;;4.25;;
76903;SDS011;65865;51.698;-0.292;2023-06-10T12:52:24;5.72;;;4.25;;
76903;SDS011;65865;51.698;-0.292;2023-06-10T12:54:50;5.47;;;3.50;;
76903;SDS011;65865;51.698;-0.292;2023-06-10T12:57:16;5.35;;;3.90;;
76903;SDS011;65865;51.698;-0.292;2023-06-10T12:59:43;5.88;;;3.67;;
76903;SDS011;65865;51.698;-0.292;2023-06-10T13:02:17;4.57;;;3.42;;
76903;SDS011;65865;51.698;-0.292;2023-06-10T13:04:44;6.05;;;4.10;;
76903;SDS011;65865;51.698;-0.292;2023-06-10T13:07:10;5.43;;;3.63;;
76903;SDS011;65865;51.698;-0.292;2023-06-10T13:09:36;5.78;;;4.10;;
76903;SDS011;65865;51.698;-0.292;2023-06-10T13:12:02;5.15;;;4.25;;
76903;SDS011;65865;51.698;-0.292;2023-06-10T13:14:28;5.93;;;4.13;;
76903;SDS011;65865;51.698;-0.292;2023-06-10T13:16:55;5.75;;;4.10;;
76903;SDS011;65865;51.698;-0.292;2023-06-10T13:19:21;5.28;;;3.90;;
76903;SDS011;65865;51.698;-0.292;2023-06-10T13:21:47;6.45;;;4.13;;
76903;SDS011;65865;51.698;-0.292;2023-06-10T13:24:13;7.75;;;4.43;;
76903;SDS011;65865;51.698;-0.292;2023-06-10T13:26:40;5.80;;;4.38;;
76903;SDS011;65865;51.698;-0.292;2023-06-10T13:29:06;4.63;;;3.58;;
76903;SDS011;65865;51.698;-0.292;2023-06-10T13:31:41;6.35;;;4.10;;
76903;SDS011;65865;51.698;-0.292;2023-06-10T13:34:07;6.20;;;4.18;;
76903;SDS011;65865;51.698;-0.292;2023-06-10T13:36:33;6.03;;;3.65;;
76903;SDS011;65865;51.698;-0.292;2023-06-10T13:38:59;6.45;;;4.70;;
76903;SDS011;65865;51.698;-0.292;2023-06-10T13:41:25;5.15;;;4.30;;
76903;SDS011;65865;51.698;-0.292;2023-06-10T13:46:19;6.07;;;3.85;;
76903;SDS011;65865;51.698;-0.292;2023-06-10T13:48:47;4.82;;;3.65;;
76903;SDS011;65865;51.698;-0.292;2023-06-10T13:51:13;5.57;;;3.88;;
76903;SDS011;65865;51.698;-0.292;2023-06-10T13:53:39;5.53;;;4.07;;
76903;SDS011;65865;51.698;-0.292;2023-06-10T13:56:05;6.90;;;3.80;;
76903;SDS011;65865;51.698;-0.292;2023-06-10T13:58:32;4.75;;;3.58;;
76903;SDS011;65865;51.698;-0.292;2023-06-10T14:01:03;6.25;;;4.07;;
76903;SDS011;65865;51.698;-0.292;2023-06-10T14:03:29;5.80;;;3.90;;
76903;SDS011;65865;51.698;-0.292;2023-06-10T14:05:55;6.43;;;4.35;;
76903;SDS011;65865;51.698;-0.292;2023-06-10T14:08:21;5.30;;;4.05;;
76903;SDS011;65865;51.698;-0.292;2023-06-10T14:10:48;4.97;;;3.97;;
76903;SDS011;65865;51.698;-0.292;2023-06-10T14:13:15;5.72;;;3.55;;
76903;SDS011;65865;51.698;-0.292;2023-06-10T14:15:42;5.30;;;4.20;;
76903;SDS011;65865;51.698;-0.292;2023-06-10T14:18:08;4.53;;;3.60;;
76903;SDS011;65865;51.698;-0.292;2023-06-10T14:20:34;4.85;;;3.55;;
76903;SDS011;65865;51.698;-0.292;2023-06-10T14:23:00;4.55;;;3.50;;
76903;SDS011;65865;51.698;-0.292;2023-06-10T14:25:26;5.05;;;3.72;;
76903;SDS011;65865;51.698;-0.292;2023-06-10T14:27:52;4.88;;;3.53;;
76903;SDS011;65865;51.698;-0.292;2023-06-10T14:30:18;4.65;;;3.65;;
76903;SDS011;65865;51.698;-0.292;2023-06-10T14:32:44;4.25;;;3.25;;
76903;SDS011;65865;51.698;-0.292;2023-06-10T14:35:10;4.90;;;3.25;;
76903;SDS011;65865;51.698;-0.292;2023-06-10T14:37:36;4.68;;;3.55;;
76903;SDS011;65865;51.698;-0.292;2023-06-10T14:40:03;5.55;;;3.33;;
76903;SDS011;65865;51.698;-0.292;2023-06-10T14:42:30;5.80;;;4.07;;
76903;SDS011;65865;51.698;-0.292;2023-06-10T14:44:57;5.18;;;3.65;;
76903;SDS011;65865;51.698;-0.292;2023-06-10T14:47:23;4.93;;;3.83;;
76903;SDS011;65865;51.698;-0.292;2023-06-10T14:49:49;5.03;;;3.83;;